DAUL/LOO METAR and TAF weather

Enter ICAO airport designator
Station Type Date Time Source
DAUL METAR 2019/06/24 23:00 UTC NOAA

DAUL 242300Z 12008KT CAVOK 29/09 Q1017


Station Type Date Time Source
DAUL Decoded METAR 2019/06/24 23:00 UTC NOAA

Laghouat, Algeria (DAUL) 33-46N 002-56E 765M
Jun 24, 2019 - 07:00 PM EDT / 2019.06.24 2300 UTC
Wind: from the ESE (120 degrees) at 9 MPH (8 KT):0
Visibility: greater than 7 mile(s):0
Temperature: 84 F (29 C)
Dew Point: 48 F (9 C)
Relative Humidity: 28%
Pressure (altimeter): 30.03 in. Hg (1017 hPa)
ob: DAUL 242300Z 12008KT CAVOK 29/09 Q1017
cycle: 23

Station Type Date Time Source
DAUL TAF 2017/11/09 18:03 UTC NOAA

TAF DAUL 091700Z 0918/1009 02012KT 9999 SCT030 SCT100 PROB40
TEMPO 0918/0924 35020G30KT 4000 -TSRA FEW030CB

Example: see airport list